Weather History for Cherokee, IA

Change the Weather History Date:

Friday, January 17, 2014

  Actual Average Record
Temperature  
Mean Temperature 14 °F -  
Max Temperature 24 °F 26 °F 49 °F (1974)
Min Temperature 3 °F 4 °F -22 °F (1977)
Degree Days  
Heating Degree Days 52    
Moisture  
Dew Point 1 °F    
Average Humidity 61    
Maximum Humidity 72    
Minimum Humidity 42    
Precipitation  
Precipitation 0.00 in - - ()
Sea Level Pressure  
Sea Level Pressure 30.02 in    
Wind  
Wind Speed 11 mph (WNW)    
Max Wind Speed 18 mph    
Max Gust Speed 26 mph    
Visibility 10 miles    
Events      
Averages and records for this station are not official NWS values.
T = Trace of Precipitation, MM = Missing Value Source: NWS Daily Summary

Daily Weather History Graph

Daily Weather History Graph

Search for Another Location

Airport:

Trip Planner

Search our weather history database for the weather conditions in past years. The results will help you decide how hot, cold, wet, or windy it might be!

Date:

Astronomy

Jan. 17, 2014 Rise Set
Actual Time 7:48 AM CST 5:16 PM CST
Civil Twilight 7:17 AM CST 5:47 PM CST
Nautical Twilight 6:42 AM CST 6:22 PM CST
Astronomical Twilight 6:09 AM CST 6:55 PM CST
Moon 7:07 PM CST (1/17) 8:14 AM CST (1/17)
Length of Visible Light 10h 29m
Length of Day
9h 27m
Full, 98% of the Moon is Illuminated
Jan 17
Full
Jan 23
Last Quarter
Jan 30
New
Feb 6
First Quarter
Feb 14
Full

Hourly Weather History & Observations

Time (CST) Temp. Windchill Dew Point Humidity Pressure Visibility Wind Dir Wind Speed Gust Speed Precip Events Conditions
12:15 AM 8.1 °F -9.0 °F -0.9 °F 67% 30.00 in 10.0 mi NNW 15.0 mph 25.3 mph N/A   Clear
12:35 AM 7.7 °F -11.2 °F -1.3 °F 67% 30.00 in 10.0 mi NNW 18.4 mph 26.5 mph N/A   Clear
12:55 AM 7.3 °F -11.1 °F -1.7 °F 67% 30.00 in 10.0 mi NNW 17.3 mph 24.2 mph N/A   Clear
1:15 AM 7.2 °F -10.8 °F -2.2 °F 66% 30.01 in 10.0 mi NNW 16.1 mph 24.2 mph N/A   Clear
1:35 AM 6.8 °F -11.8 °F -2.0 °F 67% 30.01 in 10.0 mi NNW 17.3 mph 25.3 mph N/A   Clear
1:55 AM 6.8 °F -11.8 °F -2.2 °F 67% 30.01 in 10.0 mi NNW 17.3 mph 23.0 mph N/A   Clear
2:15 AM 6.6 °F -8.8 °F -2.2 °F 67% 30.02 in 10.0 mi NNW 11.5 mph 19.6 mph N/A   Clear
2:35 AM 6.3 °F -10.7 °F -2.6 °F 67% 30.03 in 10.0 mi NNW 13.8 mph 20.7 mph N/A   Clear
2:55 AM 5.9 °F -11.8 °F -3.1 °F 67% 30.03 in 10.0 mi NNW 15.0 mph 20.7 mph N/A   Clear
3:15 AM 5.9 °F -12.4 °F -3.1 °F 67% 30.03 in 10.0 mi NNW 16.1 mph 21.9 mph N/A   Clear
3:35 AM 5.9 °F -9.7 °F -3.5 °F 65% 30.04 in 10.0 mi NNW 11.5 mph 23.0 mph N/A   Clear
3:55 AM 5.4 °F -11.8 °F -3.6 °F 66% 30.03 in 10.0 mi NNW 13.8 mph 19.6 mph N/A   Clear
4:15 AM 5.0 °F -10.8 °F -3.6 °F 68% 30.04 in 10.0 mi NNW 11.5 mph - N/A   Clear
4:35 AM 4.8 °F -11.1 °F -3.8 °F 68% 30.05 in 10.0 mi NNW 11.5 mph 17.3 mph N/A   Clear
4:55 AM 4.6 °F -8.5 °F -4.0 °F 67% 30.05 in 10.0 mi NNW 8.1 mph 17.3 mph N/A   Clear
5:15 AM 4.3 °F -10.0 °F -4.0 °F 69% 30.06 in 10.0 mi NW 9.2 mph - N/A   Clear
5:35 AM 4.1 °F -9.2 °F -4.0 °F 69% 30.06 in 10.0 mi NW 8.1 mph - N/A   Clear
5:55 AM 4.1 °F -9.2 °F -4.0 °F 69% 30.06 in 10.0 mi NNW 8.1 mph - N/A   Clear
6:15 AM 3.7 °F -8.4 °F -4.0 °F 70% 30.07 in 10.0 mi NW 6.9 mph - N/A   Clear
6:35 AM 3.2 °F -7.8 °F -4.5 °F 70% 30.07 in 10.0 mi NW 5.8 mph - N/A   Clear
6:55 AM 3.2 °F -11.3 °F -4.9 °F 69% 30.08 in 10.0 mi NW 9.2 mph - N/A   Clear
7:15 AM 3.0 °F -10.5 °F -4.9 °F 70% 30.08 in 10.0 mi NNW 8.1 mph - N/A   Clear
7:35 AM 3.2 °F -11.3 °F -5.1 °F 68% 30.08 in 10.0 mi NNW 9.2 mph - N/A   Clear
7:55 AM 3.2 °F -12.2 °F -5.3 °F 68% 30.08 in 10.0 mi NNW 10.4 mph 17.3 mph N/A   Clear
8:15 AM 3.2 °F -10.3 °F -5.3 °F 68% 30.08 in 10.0 mi North 8.1 mph 16.1 mph N/A   Clear
8:35 AM 4.1 °F -8.0 °F -4.9 °F 66% 30.09 in 10.0 mi NNW 6.9 mph - N/A   Clear
8:55 AM 4.6 °F -6.0 °F -4.9 °F 65% 30.10 in 10.0 mi NW 5.8 mph - N/A   Clear
9:15 AM 5.2 °F -7.9 °F -4.7 °F 64% 30.10 in 10.0 mi NNW 8.1 mph - N/A   Clear
9:35 AM 5.9 °F -4.5 °F -4.2 °F 63% 30.10 in 10.0 mi NNW 5.8 mph - N/A   Clear
9:55 AM 7.0 °F -4.5 °F -3.6 °F 62% 30.10 in 10.0 mi NNW 6.9 mph - N/A   Clear
10:15 AM 7.7 °F -7.4 °F -3.1 °F 61% 30.11 in 10.0 mi NW 11.5 mph - N/A   Clear
10:35 AM 9.0 °F -5.1 °F -2.2 °F 61% 30.11 in 10.0 mi NNW 10.4 mph - N/A   Clear
10:55 AM 10.6 °F -2.2 °F -1.7 °F 58% 30.11 in 10.0 mi NW 9.2 mph - N/A   Clear
11:15 AM 11.7 °F -0.9 °F -1.3 °F 56% 30.10 in 10.0 mi NNW 9.2 mph - N/A   Clear
11:35 AM 13.1 °F 0.1 °F -1.3 °F 53% 30.10 in 10.0 mi NW 10.4 mph - N/A   Clear
11:55 AM 13.8 °F 2.7 °F -0.2 °F 54% 30.09 in 10.0 mi NW 8.1 mph - N/A   Clear
12:15 PM 14.7 °F 2.9 °F 1.0 °F 55% 30.09 in 10.0 mi WNW 9.2 mph - N/A   Clear
12:35 PM 15.3 °F 5.4 °F 1.6 °F 55% 30.09 in 10.0 mi West 6.9 mph - N/A   Clear
12:55 PM 16.2 °F 5.5 °F 1.9 °F 54% 30.08 in 10.0 mi WNW 8.1 mph - N/A   Clear
1:15 PM 17.2 °F 5.2 °F 2.8 °F 53% 30.08 in 10.0 mi WNW 10.4 mph - N/A   Clear
1:35 PM 17.6 °F 5.7 °F 2.3 °F 51% 30.06 in 10.0 mi West 10.4 mph - N/A   Clear
1:55 PM 18.1 °F 6.3 °F 3.4 °F 53% 30.06 in 10.0 mi West 10.4 mph - N/A   Clear
2:15 PM 18.7 °F 9.5 °F 3.6 °F 52% 30.05 in 10.0 mi West 6.9 mph - N/A   Clear
2:35 PM 19.0 °F 7.5 °F 2.8 °F 49% 30.04 in 10.0 mi West 10.4 mph - N/A   Clear
2:55 PM 19.4 °F 7.2 °F 3.4 °F 50% 30.05 in 10.0 mi West 11.5 mph - N/A   Clear
3:15 PM 19.4 °F 8.6 °F 2.3 °F 48% 30.05 in 10.0 mi West 9.2 mph - N/A   Clear
3:35 PM 20.3 °F 11.5 °F 2.8 °F 47% 30.04 in 10.0 mi West 6.9 mph - N/A   Clear
3:55 PM 20.3 °F 12.5 °F 2.1 °F 45% 30.04 in 10.0 mi West 5.8 mph - N/A   Clear
4:15 PM 19.9 °F 14.9 °F 0.3 °F 42% 30.02 in 10.0 mi WNW 3.5 mph - N/A   Clear
4:35 PM 19.4 °F 12.8 °F 0.9 °F 45% 30.02 in 10.0 mi West 4.6 mph - N/A   Clear
4:55 PM 18.0 °F - 0.5 °F 47% 30.01 in 10.0 mi Calm Calm - N/A   Clear
5:15 PM 15.4 °F 9.8 °F 0.5 °F 52% 30.01 in 10.0 mi SW 3.5 mph - N/A   Clear
5:35 PM 14.9 °F - 1.0 °F 54% 30.01 in 10.0 mi Calm Calm - N/A   Clear
5:55 PM 16.5 °F - 1.4 °F 52% 30.01 in 10.0 mi Calm Calm - N/A   Clear
6:15 PM 15.3 °F 7.9 °F 3.9 °F 61% 30.00 in 10.0 mi SE 4.6 mph - N/A   Scattered Clouds
6:35 PM 14.4 °F - 4.5 °F 65% 30.00 in 10.0 mi Calm Calm - N/A   Scattered Clouds
6:55 PM 13.3 °F - 5.9 °F 72% 29.99 in 10.0 mi Calm Calm - N/A   Mostly Cloudy
7:15 PM 14.9 °F - 6.4 °F 69% 29.99 in 10.0 mi Calm Calm - N/A   Overcast
7:35 PM 16.5 °F 9.4 °F 5.7 °F 63% 29.97 in 10.0 mi South 4.6 mph - N/A   Overcast
7:55 PM 16.7 °F 9.6 °F 7.0 °F 66% 29.96 in 10.0 mi South 4.6 mph - N/A   Overcast
8:15 PM 17.1 °F 11.7 °F 6.6 °F 64% 29.95 in 10.0 mi SSW 3.5 mph - N/A   Overcast
8:35 PM 17.2 °F - 7.2 °F 65% 29.94 in 10.0 mi Calm Calm - N/A   Overcast
8:55 PM 17.6 °F 10.7 °F 8.1 °F 66% 29.92 in 10.0 mi South 4.6 mph - N/A   Overcast
9:15 PM 19.4 °F 12.8 °F 6.8 °F 58% 29.90 in 10.0 mi South 4.6 mph - N/A   Overcast
9:35 PM 20.1 °F 13.6 °F 7.5 °F 58% 29.89 in 10.0 mi South 4.6 mph - N/A   Overcast
9:55 PM 20.7 °F 11.0 °F 7.9 °F 58% 29.86 in 10.0 mi South 8.1 mph - N/A   Overcast
10:15 PM 21.2 °F 11.7 °F 8.1 °F 57% 29.84 in 10.0 mi South 8.1 mph - N/A   Overcast
10:35 PM 21.6 °F 10.6 °F 8.2 °F 57% 29.83 in 10.0 mi South 10.4 mph - N/A   Overcast
10:55 PM 22.6 °F 12.6 °F 8.8 °F 55% 29.81 in 10.0 mi South 9.2 mph - N/A   Overcast
11:15 PM 23.7 °F 14.0 °F 9.5 °F 55% 29.77 in 10.0 mi South 9.2 mph - N/A   Overcast
11:35 PM 24.3 °F 14.6 °F 10.6 °F 56% 29.76 in 10.0 mi South 9.2 mph - N/A   Overcast
11:55 PM 24.8 °F 14.6 °F 11.3 °F 57% 29.74 in 10.0 mi South 10.4 mph - N/A   Overcast